Calvary, Georgia
Current Conditions -  °F | °C
As of 3:35 AM on Sunday 23 Nov 2014 (Local Time) from K2J9 Reporting Station
Overcast Overcast  
Wind Chill: 63°   Ceiling: 400
Heat Index: 63°   Visibility: 7mi
Dew Point: 63°   Wind: 7mph
Humidity: 100%   Direction: 80°E
Pressure: 29.98"   Gusts: NA
Location:  30.73°N, 84.35°W
Report Text: K2J9 230835Z AUTO 08006KT 7SM BKN004 BKN010 OVC014 17/17 A2998 RMK AO1 P0001
Loading
Personal Weather Stations






























Interactive Weather Map New forecast layout! Learn more

10-Day Weather Forecast

Advertisements
Track Severe Weather on mobile